sensor_id;sensor_type;location;lat;lon;timestamp;P1;durP1;ratioP1;P2;durP2;ratioP2
74168;SDS011;62523;53.336;83.690;2023-06-10T00:04:01;45.15;;;24.10;;
74168;SDS011;62523;53.336;83.690;2023-06-10T00:09:04;35.03;;;22.58;;
74168;SDS011;62523;53.336;83.690;2023-06-10T00:14:06;33.22;;;22.75;;
74168;SDS011;62523;53.336;83.690;2023-06-10T00:19:08;32.78;;;23.30;;
74168;SDS011;62523;53.336;83.690;2023-06-10T00:24:10;28.60;;;20.27;;
74168;SDS011;62523;53.336;83.690;2023-06-10T00:29:15;32.28;;;21.88;;
74168;SDS011;62523;53.336;83.690;2023-06-10T00:34:17;30.45;;;23.63;;
74168;SDS011;62523;53.336;83.690;2023-06-10T00:39:18;31.70;;;22.67;;
74168;SDS011;62523;53.336;83.690;2023-06-10T00:44:20;36.70;;;26.15;;
74168;SDS011;62523;53.336;83.690;2023-06-10T00:49:31;39.15;;;24.49;;
74168;SDS011;62523;53.336;83.690;2023-06-10T00:54:33;41.94;;;27.02;;
74168;SDS011;62523;53.336;83.690;2023-06-10T00:59:34;51.66;;;25.53;;
74168;SDS011;62523;53.336;83.690;2023-06-10T01:04:36;47.17;;;30.73;;
74168;SDS011;62523;53.336;83.690;2023-06-10T01:09:41;29.27;;;19.43;;
74168;SDS011;62523;53.336;83.690;2023-06-10T01:15:06;29.70;;;22.63;;
74168;SDS011;62523;53.336;83.690;2023-06-10T01:20:09;27.58;;;21.25;;
74168;SDS011;62523;53.336;83.690;2023-06-10T01:25:13;27.23;;;18.57;;
74168;SDS011;62523;53.336;83.690;2023-06-10T01:30:15;30.65;;;17.17;;
74168;SDS011;62523;53.336;83.690;2023-06-10T01:35:21;32.25;;;20.88;;
74168;SDS011;62523;53.336;83.690;2023-06-10T01:40:26;24.95;;;21.35;;
74168;SDS011;62523;53.336;83.690;2023-06-10T01:45:30;40.78;;;25.75;;
74168;SDS011;62523;53.336;83.690;2023-06-10T01:50:32;30.87;;;22.53;;
74168;SDS011;62523;53.336;83.690;2023-06-10T01:55:33;40.80;;;25.73;;
74168;SDS011;62523;53.336;83.690;2023-06-10T02:00:35;37.10;;;18.70;;
74168;SDS011;62523;53.336;83.690;2023-06-10T02:05:39;30.83;;;22.25;;
74168;SDS011;62523;53.336;83.690;2023-06-10T02:10:41;34.90;;;20.40;;
74168;SDS011;62523;53.336;83.690;2023-06-10T02:15:42;35.95;;;22.13;;
74168;SDS011;62523;53.336;83.690;2023-06-10T02:20:44;28.85;;;20.13;;
74168;SDS011;62523;53.336;83.690;2023-06-10T02:25:45;33.47;;;22.13;;
74168;SDS011;62523;53.336;83.690;2023-06-10T02:30:49;34.13;;;23.08;;
74168;SDS011;62523;53.336;83.690;2023-06-10T02:35:51;39.35;;;20.70;;
74168;SDS011;62523;53.336;83.690;2023-06-10T02:40:53;29.70;;;20.20;;
74168;SDS011;62523;53.336;83.690;2023-06-10T02:45:57;42.92;;;31.15;;
74168;SDS011;62523;53.336;83.690;2023-06-10T02:50:59;30.20;;;21.10;;
74168;SDS011;62523;53.336;83.690;2023-06-10T02:56:15;26.90;;;20.02;;
74168;SDS011;62523;53.336;83.690;2023-06-10T03:01:18;31.20;;;22.05;;
74168;SDS011;62523;53.336;83.690;2023-06-10T03:06:31;33.90;;;21.55;;
74168;SDS011;62523;53.336;83.690;2023-06-10T03:11:48;50.08;;;24.27;;
74168;SDS011;62523;53.336;83.690;2023-06-10T03:16:50;33.72;;;24.02;;
74168;SDS011;62523;53.336;83.690;2023-06-10T03:21:58;35.20;;;24.65;;
74168;SDS011;62523;53.336;83.690;2023-06-10T03:27:25;46.28;;;27.13;;
74168;SDS011;62523;53.336;83.690;2023-06-10T03:32:30;35.80;;;22.73;;
74168;SDS011;62523;53.336;83.690;2023-06-10T03:37:32;36.45;;;25.88;;
74168;SDS011;62523;53.336;83.690;2023-06-10T03:42:34;32.05;;;20.83;;
74168;SDS011;62523;53.336;83.690;2023-06-10T03:47:37;35.85;;;25.75;;
74168;SDS011;62523;53.336;83.690;2023-06-10T03:52:42;39.67;;;24.90;;
74168;SDS011;62523;53.336;83.690;2023-06-10T03:57:44;33.75;;;25.02;;
74168;SDS011;62523;53.336;83.690;2023-06-10T04:02:46;36.53;;;25.37;;
74168;SDS011;62523;53.336;83.690;2023-06-10T04:07:57;32.45;;;25.20;;
74168;SDS011;62523;53.336;83.690;2023-06-10T04:12:59;38.37;;;24.33;;
74168;SDS011;62523;53.336;83.690;2023-06-10T04:18:04;42.30;;;24.23;;
74168;SDS011;62523;53.336;83.690;2023-06-10T04:23:06;45.55;;;26.48;;
74168;SDS011;62523;53.336;83.690;2023-06-10T04:28:08;46.13;;;31.05;;
74168;SDS011;62523;53.336;83.690;2023-06-10T04:33:12;47.87;;;26.93;;
74168;SDS011;62523;53.336;83.690;2023-06-10T04:38:15;37.60;;;26.20;;
74168;SDS011;62523;53.336;83.690;2023-06-10T04:43:17;41.28;;;24.52;;
74168;SDS011;62523;53.336;83.690;2023-06-10T04:48:20;39.70;;;27.38;;
74168;SDS011;62523;53.336;83.690;2023-06-10T04:53:22;39.20;;;26.33;;
74168;SDS011;62523;53.336;83.690;2023-06-10T04:58:24;42.80;;;30.20;;
74168;SDS011;62523;53.336;83.690;2023-06-10T05:03:26;37.78;;;27.35;;
74168;SDS011;62523;53.336;83.690;2023-06-10T05:08:27;39.70;;;28.45;;
74168;SDS011;62523;53.336;83.690;2023-06-10T05:13:29;38.15;;;26.23;;
74168;SDS011;62523;53.336;83.690;2023-06-10T05:18:30;47.50;;;32.30;;
74168;SDS011;62523;53.336;83.690;2023-06-10T05:23:32;44.63;;;27.58;;
74168;SDS011;62523;53.336;83.690;2023-06-10T05:28:34;44.55;;;31.85;;
74168;SDS011;62523;53.336;83.690;2023-06-10T05:33:36;41.72;;;30.98;;
74168;SDS011;62523;53.336;83.690;2023-06-10T05:38:37;45.72;;;31.23;;
74168;SDS011;62523;53.336;83.690;2023-06-10T05:43:39;39.92;;;31.50;;
74168;SDS011;62523;53.336;83.690;2023-06-10T05:48:40;44.47;;;33.60;;
74168;SDS011;62523;53.336;83.690;2023-06-10T05:53:42;68.03;;;45.78;;
74168;SDS011;62523;53.336;83.690;2023-06-10T05:58:44;49.45;;;32.13;;
74168;SDS011;62523;53.336;83.690;2023-06-10T06:03:48;48.13;;;33.78;;
74168;SDS011;62523;53.336;83.690;2023-06-10T06:08:50;48.85;;;30.80;;
74168;SDS011;62523;53.336;83.690;2023-06-10T06:13:52;51.17;;;33.90;;
74168;SDS011;62523;53.336;83.690;2023-06-10T06:18:53;49.22;;;32.67;;
74168;SDS011;62523;53.336;83.690;2023-06-10T06:23:55;48.55;;;34.25;;
74168;SDS011;62523;53.336;83.690;2023-06-10T06:28:57;50.65;;;31.95;;
74168;SDS011;62523;53.336;83.690;2023-06-10T06:33:58;52.50;;;31.30;;
74168;SDS011;62523;53.336;83.690;2023-06-10T06:39:00;37.00;;;31.30;;
74168;SDS011;62523;53.336;83.690;2023-06-10T06:44:02;30.40;;;22.08;;
74168;SDS011;62523;53.336;83.690;2023-06-10T06:49:11;35.45;;;17.90;;
74168;SDS011;62523;53.336;83.690;2023-06-10T06:54:13;26.67;;;19.60;;
74168;SDS011;62523;53.336;83.690;2023-06-10T06:59:14;30.05;;;19.80;;
74168;SDS011;62523;53.336;83.690;2023-06-10T07:04:17;22.73;;;16.67;;
74168;SDS011;62523;53.336;83.690;2023-06-10T07:09:20;20.20;;;17.65;;
74168;SDS011;62523;53.336;83.690;2023-06-10T07:14:30;11.38;;;10.20;;
74168;SDS011;62523;53.336;83.690;2023-06-10T07:19:32;8.98;;;4.50;;
74168;SDS011;62523;53.336;83.690;2023-06-10T07:24:33;5.43;;;3.85;;
74168;SDS011;62523;53.336;83.690;2023-06-10T07:29:35;2.61;;;1.83;;
74168;SDS011;62523;53.336;83.690;2023-06-10T07:34:36;1.67;;;0.80;;
74168;SDS011;62523;53.336;83.690;2023-06-10T07:39:38;5.37;;;1.23;;
74168;SDS011;62523;53.336;83.690;2023-06-10T07:44:40;0.93;;;0.80;;
74168;SDS011;62523;53.336;83.690;2023-06-10T07:49:41;0.35;;;0.35;;
74168;SDS011;62523;53.336;83.690;2023-06-10T07:54:43;0.65;;;0.65;;
74168;SDS011;62523;53.336;83.690;2023-06-10T07:59:45;0.85;;;0.50;;
74168;SDS011;62523;53.336;83.690;2023-06-10T08:04:46;4.93;;;0.77;;
74168;SDS011;62523;53.336;83.690;2023-06-10T08:09:48;1.80;;;0.80;;
74168;SDS011;62523;53.336;83.690;2023-06-10T08:14:50;3.47;;;1.88;;
74168;SDS011;62523;53.336;83.690;2023-06-10T08:19:51;2.35;;;1.45;;
74168;SDS011;62523;53.336;83.690;2023-06-10T08:24:53;0.52;;;0.52;;
74168;SDS011;62523;53.336;83.690;2023-06-10T08:29:57;0.93;;;0.90;;
74168;SDS011;62523;53.336;83.690;2023-06-10T08:35:01;1.15;;;1.05;;
74168;SDS011;62523;53.336;83.690;2023-06-10T08:40:05;5.75;;;2.03;;
74168;SDS011;62523;53.336;83.690;2023-06-10T08:45:07;1.70;;;1.60;;
74168;SDS011;62523;53.336;83.690;2023-06-10T08:50:23;1.13;;;1.03;;
74168;SDS011;62523;53.336;83.690;2023-06-10T08:55:29;3.58;;;2.00;;
74168;SDS011;62523;53.336;83.690;2023-06-10T09:00:34;10.15;;;1.70;;
74168;SDS011;62523;53.336;83.690;2023-06-10T09:05:37;1.40;;;1.30;;
74168;SDS011;62523;53.336;83.690;2023-06-10T09:10:40;2.58;;;2.17;;
74168;SDS011;62523;53.336;83.690;2023-06-10T09:15:41;2.60;;;1.90;;
74168;SDS011;62523;53.336;83.690;2023-06-10T09:20:43;2.25;;;2.05;;
74168;SDS011;62523;53.336;83.690;2023-06-10T09:25:45;3.58;;;1.90;;
74168;SDS011;62523;53.336;83.690;2023-06-10T09:30:46;0.77;;;0.77;;
74168;SDS011;62523;53.336;83.690;2023-06-10T09:35:48;4.55;;;1.88;;
74168;SDS011;62523;53.336;83.690;2023-06-10T09:40:51;2.65;;;2.35;;
74168;SDS011;62523;53.336;83.690;2023-06-10T09:45:55;4.30;;;2.95;;
74168;SDS011;62523;53.336;83.690;2023-06-10T09:50:58;2.80;;;1.63;;
74168;SDS011;62523;53.336;83.690;2023-06-10T09:56:00;4.07;;;1.77;;
74168;SDS011;62523;53.336;83.690;2023-06-10T10:01:04;2.90;;;2.13;;
74168;SDS011;62523;53.336;83.690;2023-06-10T10:06:07;5.82;;;4.38;;
74168;SDS011;62523;53.336;83.690;2023-06-10T10:11:12;2.17;;;1.98;;
74168;SDS011;62523;53.336;83.690;2023-06-10T10:16:23;6.00;;;2.83;;
74168;SDS011;62523;53.336;83.690;2023-06-10T10:21:37;4.10;;;3.53;;
74168;SDS011;62523;53.336;83.690;2023-06-10T10:26:46;3.03;;;2.10;;
74168;SDS011;62523;53.336;83.690;2023-06-10T10:31:50;4.30;;;3.90;;
74168;SDS011;62523;53.336;83.690;2023-06-10T10:36:54;7.77;;;4.73;;
74168;SDS011;62523;53.336;83.690;2023-06-10T10:41:56;3.28;;;2.40;;
74168;SDS011;62523;53.336;83.690;2023-06-10T10:46:59;3.10;;;2.50;;
74168;SDS011;62523;53.336;83.690;2023-06-10T10:52:04;4.05;;;3.08;;
74168;SDS011;62523;53.336;83.690;2023-06-10T10:57:18;6.78;;;4.90;;
74168;SDS011;62523;53.336;83.690;2023-06-10T11:07:53;3.13;;;2.83;;
74168;SDS011;62523;53.336;83.690;2023-06-10T11:12:59;3.97;;;2.55;;
74168;SDS011;62523;53.336;83.690;2023-06-10T11:18:06;8.13;;;2.92;;
74168;SDS011;62523;53.336;83.690;2023-06-10T11:23:25;8.10;;;3.53;;
74168;SDS011;62523;53.336;83.690;2023-06-10T11:28:27;5.88;;;2.72;;
74168;SDS011;62523;53.336;83.690;2023-06-10T11:33:29;4.43;;;2.75;;
74168;SDS011;62523;53.336;83.690;2023-06-10T11:38:30;4.50;;;3.17;;
74168;SDS011;62523;53.336;83.690;2023-06-10T11:43:33;6.05;;;2.80;;
74168;SDS011;62523;53.336;83.690;2023-06-10T11:48:35;4.93;;;1.85;;
74168;SDS011;62523;53.336;83.690;2023-06-10T11:53:36;3.67;;;3.38;;
74168;SDS011;62523;53.336;83.690;2023-06-10T11:58:39;4.15;;;2.22;;
74168;SDS011;62523;53.336;83.690;2023-06-10T12:03:46;3.58;;;3.28;;
74168;SDS011;62523;53.336;83.690;2023-06-10T12:08:47;4.28;;;3.88;;
74168;SDS011;62523;53.336;83.690;2023-06-10T12:13:49;6.05;;;4.38;;
74168;SDS011;62523;53.336;83.690;2023-06-10T12:19:00;3.23;;;2.87;;
74168;SDS011;62523;53.336;83.690;2023-06-10T12:24:09;7.03;;;3.88;;
74168;SDS011;62523;53.336;83.690;2023-06-10T12:29:15;2.33;;;2.15;;
74168;SDS011;62523;53.336;83.690;2023-06-10T12:34:36;3.70;;;2.70;;
74168;SDS011;62523;53.336;83.690;2023-06-10T12:39:41;4.68;;;2.88;;
74168;SDS011;62523;53.336;83.690;2023-06-10T12:44:44;5.73;;;2.93;;
74168;SDS011;62523;53.336;83.690;2023-06-10T12:49:45;2.08;;;1.92;;
74168;SDS011;62523;53.336;83.690;2023-06-10T12:54:48;5.00;;;1.85;;
74168;SDS011;62523;53.336;83.690;2023-06-10T12:59:49;1.88;;;1.58;;
74168;SDS011;62523;53.336;83.690;2023-06-10T13:04:53;6.30;;;2.53;;
74168;SDS011;62523;53.336;83.690;2023-06-10T13:09:54;2.08;;;1.88;;
74168;SDS011;62523;53.336;83.690;2023-06-10T13:14:56;4.60;;;1.38;;
74168;SDS011;62523;53.336;83.690;2023-06-10T13:19:58;3.47;;;2.33;;
74168;SDS011;62523;53.336;83.690;2023-06-10T13:24:59;4.53;;;1.90;;
74168;SDS011;62523;53.336;83.690;2023-06-10T13:30:02;5.50;;;1.95;;
74168;SDS011;62523;53.336;83.690;2023-06-10T13:35:05;2.70;;;2.20;;
74168;SDS011;62523;53.336;83.690;2023-06-10T13:40:07;4.30;;;2.15;;
74168;SDS011;62523;53.336;83.690;2023-06-10T13:45:10;1.50;;;1.25;;
74168;SDS011;62523;53.336;83.690;2023-06-10T13:50:12;2.22;;;1.92;;
74168;SDS011;62523;53.336;83.690;2023-06-10T13:55:14;3.05;;;2.67;;
74168;SDS011;62523;53.336;83.690;2023-06-10T14:00:16;2.17;;;1.80;;
74168;SDS011;62523;53.336;83.690;2023-06-10T14:05:18;3.20;;;2.40;;
74168;SDS011;62523;53.336;83.690;2023-06-10T14:10:20;1.73;;;1.63;;
74168;SDS011;62523;53.336;83.690;2023-06-10T14:15:21;4.00;;;2.78;;
74168;SDS011;62523;53.336;83.690;2023-06-10T14:20:23;4.57;;;3.33;;
74168;SDS011;62523;53.336;83.690;2023-06-10T14:25:26;5.55;;;2.08;;
74168;SDS011;62523;53.336;83.690;2023-06-10T14:30:27;4.30;;;3.10;;
74168;SDS011;62523;53.336;83.690;2023-06-10T14:35:29;2.45;;;2.28;;
74168;SDS011;62523;53.336;83.690;2023-06-10T14:40:30;7.35;;;2.35;;
74168;SDS011;62523;53.336;83.690;2023-06-10T14:45:32;3.88;;;2.65;;
74168;SDS011;62523;53.336;83.690;2023-06-10T14:50:37;7.35;;;3.03;;
74168;SDS011;62523;53.336;83.690;2023-06-10T14:55:43;5.80;;;3.47;;
74168;SDS011;62523;53.336;83.690;2023-06-10T15:00:45;3.72;;;3.03;;
74168;SDS011;62523;53.336;83.690;2023-06-10T15:05:47;3.60;;;2.88;;
74168;SDS011;62523;53.336;83.690;2023-06-10T15:10:48;4.82;;;2.78;;
74168;SDS011;62523;53.336;83.690;2023-06-10T15:15:50;2.78;;;2.00;;
74168;SDS011;62523;53.336;83.690;2023-06-10T15:20:51;3.15;;;2.35;;
74168;SDS011;62523;53.336;83.690;2023-06-10T15:25:53;4.70;;;2.70;;
74168;SDS011;62523;53.336;83.690;2023-06-10T15:30:54;4.57;;;3.78;;
74168;SDS011;62523;53.336;83.690;2023-06-10T15:35:56;4.07;;;3.35;;
74168;SDS011;62523;53.336;83.690;2023-06-10T15:40:57;2.47;;;1.60;;
74168;SDS011;62523;53.336;83.690;2023-06-10T15:45:59;4.28;;;3.92;;
74168;SDS011;62523;53.336;83.690;2023-06-10T15:51:03;5.90;;;3.63;;
74168;SDS011;62523;53.336;83.690;2023-06-10T15:56:05;2.95;;;2.25;;
74168;SDS011;62523;53.336;83.690;2023-06-10T16:01:07;3.83;;;3.42;;
74168;SDS011;62523;53.336;83.690;2023-06-10T16:06:10;4.03;;;2.33;;
74168;SDS011;62523;53.336;83.690;2023-06-10T16:11:11;4.47;;;2.78;;
74168;SDS011;62523;53.336;83.690;2023-06-10T16:16:13;6.53;;;3.95;;
74168;SDS011;62523;53.336;83.690;2023-06-10T16:21:15;4.57;;;3.97;;
74168;SDS011;62523;53.336;83.690;2023-06-10T16:26:16;5.07;;;3.05;;
74168;SDS011;62523;53.336;83.690;2023-06-10T16:31:18;7.50;;;3.15;;
74168;SDS011;62523;53.336;83.690;2023-06-10T16:36:20;4.17;;;3.47;;
74168;SDS011;62523;53.336;83.690;2023-06-10T16:41:22;3.63;;;3.33;;
74168;SDS011;62523;53.336;83.690;2023-06-10T16:46:24;4.25;;;3.75;;
74168;SDS011;62523;53.336;83.690;2023-06-10T16:51:26;10.15;;;3.15;;
74168;SDS011;62523;53.336;83.690;2023-06-10T16:56:28;8.43;;;2.88;;
74168;SDS011;62523;53.336;83.690;2023-06-10T17:01:29;4.15;;;3.75;;
74168;SDS011;62523;53.336;83.690;2023-06-10T17:06:31;4.10;;;3.45;;
74168;SDS011;62523;53.336;83.690;2023-06-10T17:11:33;5.32;;;4.50;;
74168;SDS011;62523;53.336;83.690;2023-06-10T17:16:38;3.53;;;2.83;;
74168;SDS011;62523;53.336;83.690;2023-06-10T17:21:39;7.28;;;4.18;;
74168;SDS011;62523;53.336;83.690;2023-06-10T17:26:41;4.30;;;3.78;;
74168;SDS011;62523;53.336;83.690;2023-06-10T17:31:42;8.02;;;4.30;;
74168;SDS011;62523;53.336;83.690;2023-06-10T17:36:44;5.22;;;4.22;;
74168;SDS011;62523;53.336;83.690;2023-06-10T17:41:46;7.77;;;4.80;;
74168;SDS011;62523;53.336;83.690;2023-06-10T17:46:47;4.03;;;2.78;;
74168;SDS011;62523;53.336;83.690;2023-06-10T17:51:49;8.18;;;4.03;;
74168;SDS011;62523;53.336;83.690;2023-06-10T17:56:51;7.65;;;4.00;;
74168;SDS011;62523;53.336;83.690;2023-06-10T18:01:53;7.35;;;4.93;;
74168;SDS011;62523;53.336;83.690;2023-06-10T18:06:54;5.00;;;3.95;;
74168;SDS011;62523;53.336;83.690;2023-06-10T18:11:56;5.45;;;4.95;;
74168;SDS011;62523;53.336;83.690;2023-06-10T18:16:57;6.57;;;4.10;;
74168;SDS011;62523;53.336;83.690;2023-06-10T18:21:59;8.13;;;5.75;;
74168;SDS011;62523;53.336;83.690;2023-06-10T18:27:01;10.40;;;5.93;;
74168;SDS011;62523;53.336;83.690;2023-06-10T18:32:02;5.80;;;4.28;;
74168;SDS011;62523;53.336;83.690;2023-06-10T18:37:05;6.47;;;4.93;;
74168;SDS011;62523;53.336;83.690;2023-06-10T18:42:08;7.25;;;5.70;;
74168;SDS011;62523;53.336;83.690;2023-06-10T18:47:09;7.20;;;4.13;;
74168;SDS011;62523;53.336;83.690;2023-06-10T18:52:11;7.38;;;5.20;;
74168;SDS011;62523;53.336;83.690;2023-06-10T18:57:13;6.93;;;5.45;;
74168;SDS011;62523;53.336;83.690;2023-06-10T19:02:15;9.52;;;4.88;;
74168;SDS011;62523;53.336;83.690;2023-06-10T19:07:16;5.63;;;4.70;;
74168;SDS011;62523;53.336;83.690;2023-06-10T19:12:18;5.93;;;4.35;;
74168;SDS011;62523;53.336;83.690;2023-06-10T19:17:20;13.50;;;5.63;;
74168;SDS011;62523;53.336;83.690;2023-06-10T19:22:22;8.77;;;6.03;;
74168;SDS011;62523;53.336;83.690;2023-06-10T19:27:23;8.30;;;7.13;;
74168;SDS011;62523;53.336;83.690;2023-06-10T19:32:25;8.23;;;5.05;;
74168;SDS011;62523;53.336;83.690;2023-06-10T19:37:28;12.05;;;6.78;;
74168;SDS011;62523;53.336;83.690;2023-06-10T19:42:30;8.73;;;7.67;;
74168;SDS011;62523;53.336;83.690;2023-06-10T19:47:31;6.85;;;4.32;;
74168;SDS011;62523;53.336;83.690;2023-06-10T19:52:33;9.52;;;7.90;;
74168;SDS011;62523;53.336;83.690;2023-06-10T19:57:35;9.02;;;7.32;;
74168;SDS011;62523;53.336;83.690;2023-06-10T20:02:37;5.38;;;4.88;;
74168;SDS011;62523;53.336;83.690;2023-06-10T20:07:38;9.32;;;6.22;;
74168;SDS011;62523;53.336;83.690;2023-06-10T20:12:40;10.23;;;9.13;;
74168;SDS011;62523;53.336;83.690;2023-06-10T20:17:42;14.10;;;10.00;;
74168;SDS011;62523;53.336;83.690;2023-06-10T20:22:45;11.02;;;8.30;;
74168;SDS011;62523;53.336;83.690;2023-06-10T20:27:47;9.07;;;6.85;;
74168;SDS011;62523;53.336;83.690;2023-06-10T20:32:49;29.83;;;7.80;;
74168;SDS011;62523;53.336;83.690;2023-06-10T20:37:51;11.90;;;7.88;;
74168;SDS011;62523;53.336;83.690;2023-06-10T20:42:53;12.30;;;8.18;;
74168;SDS011;62523;53.336;83.690;2023-06-10T20:47:54;8.70;;;6.78;;
74168;SDS011;62523;53.336;83.690;2023-06-10T20:52:56;8.95;;;7.03;;
74168;SDS011;62523;53.336;83.690;2023-06-10T20:57:57;8.05;;;6.07;;
74168;SDS011;62523;53.336;83.690;2023-06-10T21:02:59;8.90;;;6.80;;
74168;SDS011;62523;53.336;83.690;2023-06-10T21:08:01;13.75;;;10.93;;
74168;SDS011;62523;53.336;83.690;2023-06-10T21:13:03;9.68;;;7.60;;
74168;SDS011;62523;53.336;83.690;2023-06-10T21:18:05;9.00;;;6.13;;
74168;SDS011;62523;53.336;83.690;2023-06-10T21:23:07;11.20;;;8.35;;
74168;SDS011;62523;53.336;83.690;2023-06-10T21:28:09;10.82;;;7.60;;
74168;SDS011;62523;53.336;83.690;2023-06-10T21:33:10;12.77;;;8.40;;
74168;SDS011;62523;53.336;83.690;2023-06-10T21:38:13;11.75;;;7.40;;
74168;SDS011;62523;53.336;83.690;2023-06-10T21:43:14;10.55;;;7.53;;
74168;SDS011;62523;53.336;83.690;2023-06-10T21:48:16;8.40;;;6.70;;
74168;SDS011;62523;53.336;83.690;2023-06-10T21:53:18;17.00;;;7.20;;
74168;SDS011;62523;53.336;83.690;2023-06-10T21:58:20;12.02;;;7.90;;
74168;SDS011;62523;53.336;83.690;2023-06-10T22:03:22;9.95;;;8.40;;
74168;SDS011;62523;53.336;83.690;2023-06-10T22:08:23;15.38;;;7.85;;
74168;SDS011;62523;53.336;83.690;2023-06-10T22:13:25;14.77;;;12.80;;
74168;SDS011;62523;53.336;83.690;2023-06-10T22:18:27;9.05;;;7.18;;
74168;SDS011;62523;53.336;83.690;2023-06-10T22:23:29;9.13;;;7.93;;
74168;SDS011;62523;53.336;83.690;2023-06-10T22:28:31;11.70;;;7.90;;
74168;SDS011;62523;53.336;83.690;2023-06-10T22:33:32;9.83;;;8.47;;
74168;SDS011;62523;53.336;83.690;2023-06-10T22:38:34;12.48;;;8.98;;
74168;SDS011;62523;53.336;83.690;2023-06-10T22:43:36;12.63;;;9.95;;
74168;SDS011;62523;53.336;83.690;2023-06-10T22:48:38;19.33;;;14.15;;
74168;SDS011;62523;53.336;83.690;2023-06-10T22:53:39;19.48;;;9.95;;
74168;SDS011;62523;53.336;83.690;2023-06-10T22:58:41;20.48;;;15.10;;
74168;SDS011;62523;53.336;83.690;2023-06-10T23:03:43;16.08;;;9.63;;
74168;SDS011;62523;53.336;83.690;2023-06-10T23:08:46;15.47;;;9.60;;
74168;SDS011;62523;53.336;83.690;2023-06-10T23:13:48;14.03;;;8.90;;
74168;SDS011;62523;53.336;83.690;2023-06-10T23:18:50;11.68;;;8.93;;
74168;SDS011;62523;53.336;83.690;2023-06-10T23:23:52;15.25;;;8.48;;
74168;SDS011;62523;53.336;83.690;2023-06-10T23:28:54;17.33;;;7.85;;
74168;SDS011;62523;53.336;83.690;2023-06-10T23:33:55;14.18;;;7.95;;
74168;SDS011;62523;53.336;83.690;2023-06-10T23:38:58;9.90;;;8.53;;
74168;SDS011;62523;53.336;83.690;2023-06-10T23:44:00;25.08;;;11.77;;
74168;SDS011;62523;53.336;83.690;2023-06-10T23:49:02;8.45;;;7.60;;
74168;SDS011;62523;53.336;83.690;2023-06-10T23:54:09;9.00;;;7.00;;
74168;SDS011;62523;53.336;83.690;2023-06-10T23:59:13;15.68;;;10.38;;
